createdAt,value
2022-09-15T00:00:36.181Z,95895.16
2022-09-15T00:11:07.863Z,95896.66
2022-09-15T00:21:14.131Z,95908.19
2022-09-15T00:31:19.930Z,95911.03
2022-09-15T00:41:23.658Z,95909.44
2022-09-15T00:51:37.189Z,95902.41
2022-09-15T01:01:41.972Z,95906.31
2022-09-15T01:11:44.938Z,95923.06
2022-09-15T01:21:55.641Z,95927.16
2022-09-15T01:32:27.513Z,95931.72
2022-09-15T01:42:32.364Z,95953.19
2022-09-15T01:52:34.852Z,95958.47
2022-09-15T02:02:46.676Z,95971.16
2022-09-15T02:12:57.790Z,95980.53
2022-09-15T02:23:08.585Z,95959.59
2022-09-15T02:33:16.640Z,95970.94
2022-09-15T02:43:19.432Z,95966.00
2022-09-15T02:53:21.530Z,95990.25
2022-09-15T03:03:23.945Z,96003.22
2022-09-15T03:13:26.300Z,96036.84
2022-09-15T03:23:28.890Z,96055.88
2022-09-15T03:33:31.517Z,96047.28
2022-09-15T03:43:34.991Z,96053.00
2022-09-15T03:53:39.652Z,96057.59
2022-09-15T04:03:46.315Z,96055.88
2022-09-15T04:13:50.539Z,96061.03
2022-09-15T04:23:53.583Z,96064.91
2022-09-15T04:33:56.184Z,96071.84
2022-09-15T04:43:58.696Z,96072.63
2022-09-15T04:54:00.785Z,96061.91
2022-09-15T05:04:04.204Z,96073.91
2022-09-15T05:14:08.180Z,96080.06
2022-09-15T05:24:10.305Z,96058.03
2022-09-15T05:34:12.490Z,96059.84
2022-09-15T05:44:14.677Z,96074.38
2022-09-15T05:54:16.793Z,96063.66
2022-09-15T06:04:18.861Z,96073.28
2022-09-15T06:14:21.083Z,96089.47
2022-09-15T06:24:23.193Z,96094.19
2022-09-15T06:34:25.273Z,96103.22
2022-09-15T06:44:27.813Z,96093.50
2022-09-15T06:54:29.899Z,96122.84
2022-09-15T07:04:32.081Z,96133.59
2022-09-15T07:14:34.162Z,96131.81
2022-09-15T07:24:36.208Z,96140.66
2022-09-15T07:34:38.345Z,96151.41
2022-09-15T07:44:40.451Z,96153.00
2022-09-15T07:54:42.529Z,96155.56
2022-09-15T08:04:44.705Z,96156.00
2022-09-15T08:14:46.820Z,96152.44
2022-09-15T08:24:49.376Z,96156.44
2022-09-15T08:34:51.505Z,96167.66
2022-09-15T08:45:00.562Z,96158.75
2022-09-15T08:55:13.022Z,96151.56
2022-09-15T09:05:30.451Z,96162.38
2022-09-15T09:15:57.650Z,96144.84
2022-09-15T09:26:02.267Z,96148.38
2022-09-15T09:36:04.545Z,96161.69
2022-09-15T09:46:16.629Z,96145.03
2022-09-15T09:56:27.038Z,96147.34
2022-09-15T10:06:31.078Z,96143.38
2022-09-15T10:16:33.629Z,96144.91
2022-09-15T10:26:36.263Z,96134.84
2022-09-15T10:36:38.419Z,96124.28
2022-09-15T10:46:46.520Z,96121.09
2022-09-15T10:56:52.513Z,96123.91
2022-09-15T11:07:31.041Z,96121.72
2022-09-15T11:17:54.822Z,96140.09
2022-09-15T11:28:25.353Z,96132.25
2022-09-15T11:38:48.958Z,96124.09
2022-09-15T11:49:17.373Z,96120.81
2022-09-15T11:59:44.215Z,96127.06
2022-09-15T12:09:48.313Z,96141.28
2022-09-15T12:20:02.679Z,96135.72
2022-09-15T12:30:06.314Z,96132.69
2022-09-15T12:40:30.588Z,96127.69
2022-09-15T12:50:43.501Z,96135.59
2022-09-15T13:01:07.206Z,96133.63
2022-09-15T13:11:19.651Z,96138.00
2022-09-15T13:21:24.181Z,96147.84
2022-09-15T13:31:39.026Z,96142.34
2022-09-15T13:41:43.009Z,96113.75
2022-09-15T13:51:55.468Z,96116.31
2022-09-15T14:01:59.707Z,96112.47
2022-09-15T14:12:15.134Z,96124.34
2022-09-15T14:22:20.260Z,96111.50
2022-09-15T14:32:22.451Z,96104.59
2022-09-15T14:42:40.716Z,96104.44
2022-09-15T14:52:44.857Z,96116.16
2022-09-15T15:03:01.048Z,96097.72
2022-09-15T15:13:16.350Z,96103.66
2022-09-15T15:23:28.054Z,96094.72
2022-09-15T15:33:30.291Z,96088.34
2022-09-15T15:43:32.496Z,96112.28
2022-09-15T15:53:35.070Z,96112.47
2022-09-15T16:03:37.208Z,96120.03
2022-09-15T16:13:39.954Z,96122.59
2022-09-15T16:23:42.186Z,96131.56
2022-09-15T16:33:44.447Z,96136.69
2022-09-15T16:43:47.251Z,96149.25
2022-09-15T16:53:51.233Z,96143.59
2022-09-15T17:03:53.319Z,96137.81
2022-09-15T17:13:55.513Z,96142.56
2022-09-15T17:23:57.631Z,96142.66
2022-09-15T17:34:01.034Z,96150.38
2022-09-15T17:44:03.378Z,96154.88
2022-09-15T17:54:07.512Z,96171.13
2022-09-15T18:04:11.324Z,96180.63
2022-09-15T18:14:13.479Z,96197.72
2022-09-15T18:24:15.572Z,96192.00
2022-09-15T18:34:17.718Z,96200.75
2022-09-15T18:44:19.818Z,96210.56
2022-09-15T18:54:21.992Z,96228.28
2022-09-15T19:04:27.292Z,96230.91
2022-09-15T19:14:32.074Z,96243.22
2022-09-15T19:24:34.323Z,96238.59
2022-09-15T19:34:38.635Z,96255.03
2022-09-15T19:44:41.955Z,96251.47
2022-09-15T19:54:44.434Z,96253.91
2022-09-15T20:15:04.708Z,96265.47
2022-09-15T20:25:07.082Z,96262.72
2022-09-15T20:35:09.300Z,96256.13
2022-09-15T20:45:11.669Z,96258.06
2022-09-15T20:55:13.914Z,96270.09
2022-09-15T21:05:16.095Z,96268.00
2022-09-15T21:15:18.492Z,96271.34
2022-09-15T21:25:21.209Z,96280.69
2022-09-15T21:35:23.349Z,96293.34
2022-09-15T21:45:25.534Z,96290.41
2022-09-15T21:55:27.692Z,96300.38
2022-09-15T22:10:05.168Z,96312.47
2022-09-15T22:20:09.424Z,96311.41
2022-09-15T22:30:12.440Z,96318.19
2022-09-15T22:40:14.651Z,96306.63
2022-09-15T22:50:16.877Z,96309.69
2022-09-15T23:00:20.431Z,96311.94
2022-09-15T23:10:22.623Z,96307.75
2022-09-15T23:20:24.815Z,96310.78
2022-09-15T23:30:26.899Z,96315.78
2022-09-15T23:40:29.826Z,96314.00
2022-09-15T23:50:32.701Z,96313.19
